sensor_id;sensor_type;location;lat;lon;timestamp;P1;durP1;ratioP1;P2;durP2;ratioP2
45642;SDS011;31358;46.008;11.144;2023-07-31T00:00:05;6.32;;;3.80;;
45642;SDS011;31358;46.008;11.144;2023-07-31T00:02:31;5.97;;;3.95;;
45642;SDS011;31358;46.008;11.144;2023-07-31T00:04:57;5.70;;;3.05;;
45642;SDS011;31358;46.008;11.144;2023-07-31T00:07:23;8.07;;;3.10;;
45642;SDS011;31358;46.008;11.144;2023-07-31T00:09:48;5.38;;;2.78;;
45642;SDS011;31358;46.008;11.144;2023-07-31T00:12:14;4.25;;;2.78;;
45642;SDS011;31358;46.008;11.144;2023-07-31T00:14:40;5.35;;;2.95;;
45642;SDS011;31358;46.008;11.144;2023-07-31T00:17:05;7.07;;;2.85;;
45642;SDS011;31358;46.008;11.144;2023-07-31T00:19:31;5.95;;;3.60;;
45642;SDS011;31358;46.008;11.144;2023-07-31T00:21:56;7.82;;;3.78;;
45642;SDS011;31358;46.008;11.144;2023-07-31T00:24:22;5.82;;;3.45;;
45642;SDS011;31358;46.008;11.144;2023-07-31T00:26:48;4.93;;;3.17;;
45642;SDS011;31358;46.008;11.144;2023-07-31T00:29:13;6.85;;;2.85;;
45642;SDS011;31358;46.008;11.144;2023-07-31T00:31:39;6.20;;;3.40;;
45642;SDS011;31358;46.008;11.144;2023-07-31T00:34:05;5.05;;;3.30;;
45642;SDS011;31358;46.008;11.144;2023-07-31T00:36:30;5.40;;;2.90;;
45642;SDS011;31358;46.008;11.144;2023-07-31T00:38:56;6.45;;;3.70;;
45642;SDS011;31358;46.008;11.144;2023-07-31T00:41:22;7.80;;;3.05;;
45642;SDS011;31358;46.008;11.144;2023-07-31T00:43:47;5.38;;;3.03;;
45642;SDS011;31358;46.008;11.144;2023-07-31T00:46:13;9.57;;;3.72;;
45642;SDS011;31358;46.008;11.144;2023-07-31T00:48:39;5.35;;;3.05;;
45642;SDS011;31358;46.008;11.144;2023-07-31T00:51:05;4.60;;;3.10;;
45642;SDS011;31358;46.008;11.144;2023-07-31T00:53:31;5.20;;;2.97;;
45642;SDS011;31358;46.008;11.144;2023-07-31T00:55:57;5.25;;;3.10;;
45642;SDS011;31358;46.008;11.144;2023-07-31T00:58:23;4.65;;;3.08;;
45642;SDS011;31358;46.008;11.144;2023-07-31T01:00:49;5.93;;;3.28;;
45642;SDS011;31358;46.008;11.144;2023-07-31T01:03:15;5.97;;;2.95;;
45642;SDS011;31358;46.008;11.144;2023-07-31T01:05:49;6.10;;;2.95;;
45642;SDS011;31358;46.008;11.144;2023-07-31T01:08:41;5.82;;;3.10;;
45642;SDS011;31358;46.008;11.144;2023-07-31T01:11:33;7.60;;;3.53;;
45642;SDS011;31358;46.008;11.144;2023-07-31T01:14:02;5.00;;;3.40;;
45642;SDS011;31358;46.008;11.144;2023-07-31T01:16:28;5.00;;;3.03;;
45642;SDS011;31358;46.008;11.144;2023-07-31T01:18:54;6.47;;;4.00;;
45642;SDS011;31358;46.008;11.144;2023-07-31T01:26:41;6.15;;;3.15;;
45642;SDS011;31358;46.008;11.144;2023-07-31T01:29:23;6.13;;;2.95;;
45642;SDS011;31358;46.008;11.144;2023-07-31T01:32:17;4.40;;;2.83;;
45642;SDS011;31358;46.008;11.144;2023-07-31T01:34:43;7.43;;;3.35;;
45642;SDS011;31358;46.008;11.144;2023-07-31T01:37:09;6.38;;;3.38;;
45642;SDS011;31358;46.008;11.144;2023-07-31T01:39:35;8.88;;;3.95;;
45642;SDS011;31358;46.008;11.144;2023-07-31T01:42:01;6.65;;;3.35;;
45642;SDS011;31358;46.008;11.144;2023-07-31T01:44:26;4.75;;;3.30;;
45642;SDS011;31358;46.008;11.144;2023-07-31T01:46:52;5.15;;;3.30;;
45642;SDS011;31358;46.008;11.144;2023-07-31T01:49:18;4.85;;;3.42;;
45642;SDS011;31358;46.008;11.144;2023-07-31T01:51:43;9.50;;;3.70;;
45642;SDS011;31358;46.008;11.144;2023-07-31T01:54:09;7.03;;;3.40;;
45642;SDS011;31358;46.008;11.144;2023-07-31T01:56:36;5.60;;;3.47;;
45642;SDS011;31358;46.008;11.144;2023-07-31T01:59:01;4.53;;;3.20;;
45642;SDS011;31358;46.008;11.144;2023-07-31T02:01:27;6.65;;;3.35;;
45642;SDS011;31358;46.008;11.144;2023-07-31T02:03:53;5.00;;;2.90;;
45642;SDS011;31358;46.008;11.144;2023-07-31T02:06:19;5.97;;;3.72;;
45642;SDS011;31358;46.008;11.144;2023-07-31T02:08:44;6.95;;;3.42;;
45642;SDS011;31358;46.008;11.144;2023-07-31T02:11:10;5.43;;;3.50;;
45642;SDS011;31358;46.008;11.144;2023-07-31T02:13:36;5.43;;;3.38;;
45642;SDS011;31358;46.008;11.144;2023-07-31T02:16:01;4.88;;;2.90;;
45642;SDS011;31358;46.008;11.144;2023-07-31T02:18:27;5.60;;;3.42;;
45642;SDS011;31358;46.008;11.144;2023-07-31T02:20:53;7.20;;;3.03;;
45642;SDS011;31358;46.008;11.144;2023-07-31T02:23:18;4.53;;;2.45;;
45642;SDS011;31358;46.008;11.144;2023-07-31T02:25:45;5.47;;;3.30;;
45642;SDS011;31358;46.008;11.144;2023-07-31T02:28:11;5.93;;;3.10;;
45642;SDS011;31358;46.008;11.144;2023-07-31T02:30:37;6.20;;;3.58;;
45642;SDS011;31358;46.008;11.144;2023-07-31T02:33:03;4.90;;;3.10;;
45642;SDS011;31358;46.008;11.144;2023-07-31T02:35:29;6.25;;;3.17;;
45642;SDS011;31358;46.008;11.144;2023-07-31T02:37:54;6.47;;;3.55;;
45642;SDS011;31358;46.008;11.144;2023-07-31T02:40:20;6.78;;;3.60;;
45642;SDS011;31358;46.008;11.144;2023-07-31T02:42:46;5.18;;;3.40;;
45642;SDS011;31358;46.008;11.144;2023-07-31T02:45:11;8.60;;;3.97;;
45642;SDS011;31358;46.008;11.144;2023-07-31T02:47:37;6.18;;;3.78;;
45642;SDS011;31358;46.008;11.144;2023-07-31T02:50:03;7.43;;;3.38;;
45642;SDS011;31358;46.008;11.144;2023-07-31T02:52:29;5.57;;;3.70;;
45642;SDS011;31358;46.008;11.144;2023-07-31T02:54:56;10.35;;;3.72;;
45642;SDS011;31358;46.008;11.144;2023-07-31T02:57:22;5.70;;;3.17;;
45642;SDS011;31358;46.008;11.144;2023-07-31T02:59:48;5.40;;;3.33;;
45642;SDS011;31358;46.008;11.144;2023-07-31T03:02:15;5.70;;;3.50;;
45642;SDS011;31358;46.008;11.144;2023-07-31T03:04:40;4.63;;;3.40;;
45642;SDS011;31358;46.008;11.144;2023-07-31T03:07:06;5.82;;;3.50;;
45642;SDS011;31358;46.008;11.144;2023-07-31T03:09:32;7.57;;;4.53;;
45642;SDS011;31358;46.008;11.144;2023-07-31T03:11:57;5.40;;;2.88;;
45642;SDS011;31358;46.008;11.144;2023-07-31T03:14:23;8.50;;;3.00;;
45642;SDS011;31358;46.008;11.144;2023-07-31T03:16:51;7.72;;;3.78;;
45642;SDS011;31358;46.008;11.144;2023-07-31T03:19:17;4.32;;;2.97;;
45642;SDS011;31358;46.008;11.144;2023-07-31T03:21:42;6.30;;;3.25;;
45642;SDS011;31358;46.008;11.144;2023-07-31T03:24:08;8.70;;;3.47;;
45642;SDS011;31358;46.008;11.144;2023-07-31T03:26:33;6.40;;;2.88;;
45642;SDS011;31358;46.008;11.144;2023-07-31T03:29:00;6.45;;;2.72;;
45642;SDS011;31358;46.008;11.144;2023-07-31T03:31:25;4.20;;;2.53;;
45642;SDS011;31358;46.008;11.144;2023-07-31T03:33:51;4.82;;;2.67;;
45642;SDS011;31358;46.008;11.144;2023-07-31T03:36:17;5.35;;;2.50;;
45642;SDS011;31358;46.008;11.144;2023-07-31T03:38:42;6.97;;;3.08;;
45642;SDS011;31358;46.008;11.144;2023-07-31T03:41:08;5.53;;;2.55;;
45642;SDS011;31358;46.008;11.144;2023-07-31T03:43:35;4.00;;;2.35;;
45642;SDS011;31358;46.008;11.144;2023-07-31T03:46:01;3.47;;;2.00;;
45642;SDS011;31358;46.008;11.144;2023-07-31T03:48:27;4.43;;;2.22;;
45642;SDS011;31358;46.008;11.144;2023-07-31T03:50:53;5.30;;;2.45;;
45642;SDS011;31358;46.008;11.144;2023-07-31T03:53:19;5.82;;;1.85;;
45642;SDS011;31358;46.008;11.144;2023-07-31T03:55:45;4.47;;;2.45;;
45642;SDS011;31358;46.008;11.144;2023-07-31T03:58:11;6.57;;;3.42;;
45642;SDS011;31358;46.008;11.144;2023-07-31T04:00:36;6.20;;;2.65;;
45642;SDS011;31358;46.008;11.144;2023-07-31T04:03:02;5.65;;;3.25;;
45642;SDS011;31358;46.008;11.144;2023-07-31T04:05:29;5.57;;;3.30;;
45642;SDS011;31358;46.008;11.144;2023-07-31T04:07:56;5.65;;;2.90;;
45642;SDS011;31358;46.008;11.144;2023-07-31T04:10:22;4.40;;;2.75;;
45642;SDS011;31358;46.008;11.144;2023-07-31T04:12:48;6.47;;;2.58;;
45642;SDS011;31358;46.008;11.144;2023-07-31T04:15:13;4.93;;;2.10;;
45642;SDS011;31358;46.008;11.144;2023-07-31T04:17:39;4.05;;;2.35;;
45642;SDS011;31358;46.008;11.144;2023-07-31T04:20:05;4.30;;;2.58;;
45642;SDS011;31358;46.008;11.144;2023-07-31T04:22:31;4.97;;;2.53;;
45642;SDS011;31358;46.008;11.144;2023-07-31T04:24:57;5.30;;;3.15;;
45642;SDS011;31358;46.008;11.144;2023-07-31T04:27:22;6.55;;;2.70;;
45642;SDS011;31358;46.008;11.144;2023-07-31T04:29:48;7.38;;;3.08;;
45642;SDS011;31358;46.008;11.144;2023-07-31T04:32:14;4.97;;;3.20;;
45642;SDS011;31358;46.008;11.144;2023-07-31T04:34:41;5.63;;;3.28;;
45642;SDS011;31358;46.008;11.144;2023-07-31T04:37:07;6.00;;;3.10;;
45642;SDS011;31358;46.008;11.144;2023-07-31T04:39:33;5.53;;;3.03;;
45642;SDS011;31358;46.008;11.144;2023-07-31T04:41:59;6.40;;;2.63;;
45642;SDS011;31358;46.008;11.144;2023-07-31T04:44:24;5.25;;;2.67;;
45642;SDS011;31358;46.008;11.144;2023-07-31T04:46:50;6.45;;;2.60;;
45642;SDS011;31358;46.008;11.144;2023-07-31T04:49:16;5.13;;;3.03;;
45642;SDS011;31358;46.008;11.144;2023-07-31T04:51:41;6.15;;;2.83;;
45642;SDS011;31358;46.008;11.144;2023-07-31T04:54:07;5.00;;;2.83;;
45642;SDS011;31358;46.008;11.144;2023-07-31T04:56:33;4.45;;;2.63;;
45642;SDS011;31358;46.008;11.144;2023-07-31T04:58:58;5.10;;;2.78;;
45642;SDS011;31358;46.008;11.144;2023-07-31T05:01:24;4.90;;;2.50;;
45642;SDS011;31358;46.008;11.144;2023-07-31T05:03:50;10.55;;;3.30;;
45642;SDS011;31358;46.008;11.144;2023-07-31T05:06:16;5.90;;;3.20;;
45642;SDS011;31358;46.008;11.144;2023-07-31T05:08:42;4.32;;;2.75;;
45642;SDS011;31358;46.008;11.144;2023-07-31T05:11:07;5.32;;;2.60;;
45642;SDS011;31358;46.008;11.144;2023-07-31T05:13:33;4.60;;;2.83;;
45642;SDS011;31358;46.008;11.144;2023-07-31T05:15:58;5.85;;;3.13;;
45642;SDS011;31358;46.008;11.144;2023-07-31T05:18:24;6.13;;;2.25;;
45642;SDS011;31358;46.008;11.144;2023-07-31T05:20:50;4.57;;;2.90;;
45642;SDS011;31358;46.008;11.144;2023-07-31T05:23:15;4.68;;;2.83;;
45642;SDS011;31358;46.008;11.144;2023-07-31T05:25:41;6.90;;;2.88;;
45642;SDS011;31358;46.008;11.144;2023-07-31T05:28:06;5.60;;;2.85;;
45642;SDS011;31358;46.008;11.144;2023-07-31T05:30:33;5.95;;;2.97;;
45642;SDS011;31358;46.008;11.144;2023-07-31T05:32:58;4.25;;;2.67;;
45642;SDS011;31358;46.008;11.144;2023-07-31T05:35:24;7.85;;;2.58;;
45642;SDS011;31358;46.008;11.144;2023-07-31T05:37:50;5.13;;;2.75;;
45642;SDS011;31358;46.008;11.144;2023-07-31T05:40:15;7.88;;;2.90;;
45642;SDS011;31358;46.008;11.144;2023-07-31T05:42:41;7.68;;;2.63;;
45642;SDS011;31358;46.008;11.144;2023-07-31T05:45:07;7.30;;;2.95;;
45642;SDS011;31358;46.008;11.144;2023-07-31T05:47:33;4.75;;;2.50;;
45642;SDS011;31358;46.008;11.144;2023-07-31T05:49:59;6.65;;;2.70;;
45642;SDS011;31358;46.008;11.144;2023-07-31T05:52:24;11.82;;;3.60;;
45642;SDS011;31358;46.008;11.144;2023-07-31T05:54:50;4.18;;;2.53;;
45642;SDS011;31358;46.008;11.144;2023-07-31T05:57:16;4.00;;;2.47;;
45642;SDS011;31358;46.008;11.144;2023-07-31T05:59:42;3.97;;;2.53;;
45642;SDS011;31358;46.008;11.144;2023-07-31T06:02:08;7.18;;;2.65;;
45642;SDS011;31358;46.008;11.144;2023-07-31T06:04:33;4.47;;;2.20;;
45642;SDS011;31358;46.008;11.144;2023-07-31T06:06:59;4.43;;;2.67;;
45642;SDS011;31358;46.008;11.144;2023-07-31T06:09:25;6.55;;;3.03;;
45642;SDS011;31358;46.008;11.144;2023-07-31T06:11:51;3.60;;;2.08;;
45642;SDS011;31358;46.008;11.144;2023-07-31T06:14:17;5.70;;;2.50;;
45642;SDS011;31358;46.008;11.144;2023-07-31T06:16:44;5.30;;;2.55;;
45642;SDS011;31358;46.008;11.144;2023-07-31T06:19:09;6.03;;;2.80;;
45642;SDS011;31358;46.008;11.144;2023-07-31T06:21:35;7.07;;;2.90;;
45642;SDS011;31358;46.008;11.144;2023-07-31T06:24:07;5.30;;;2.83;;
45642;SDS011;31358;46.008;11.144;2023-07-31T06:26:33;4.97;;;2.10;;
45642;SDS011;31358;46.008;11.144;2023-07-31T06:28:58;6.68;;;2.63;;
45642;SDS011;31358;46.008;11.144;2023-07-31T06:31:24;5.50;;;2.53;;
45642;SDS011;31358;46.008;11.144;2023-07-31T06:33:50;7.50;;;3.25;;
45642;SDS011;31358;46.008;11.144;2023-07-31T06:36:17;4.35;;;2.20;;
45642;SDS011;31358;46.008;11.144;2023-07-31T06:38:42;5.07;;;3.13;;
45642;SDS011;31358;46.008;11.144;2023-07-31T06:41:08;6.50;;;2.70;;
45642;SDS011;31358;46.008;11.144;2023-07-31T06:43:35;5.07;;;2.20;;
45642;SDS011;31358;46.008;11.144;2023-07-31T06:46:05;5.28;;;2.70;;
45642;SDS011;31358;46.008;11.144;2023-07-31T06:48:32;3.97;;;2.15;;
45642;SDS011;31358;46.008;11.144;2023-07-31T06:50:58;5.43;;;2.60;;
45642;SDS011;31358;46.008;11.144;2023-07-31T06:53:24;7.13;;;2.50;;
45642;SDS011;31358;46.008;11.144;2023-07-31T06:55:49;6.63;;;2.50;;
45642;SDS011;31358;46.008;11.144;2023-07-31T06:58:16;8.43;;;3.00;;
45642;SDS011;31358;46.008;11.144;2023-07-31T07:00:43;9.55;;;2.88;;
45642;SDS011;31358;46.008;11.144;2023-07-31T07:03:09;6.22;;;2.20;;
45642;SDS011;31358;46.008;11.144;2023-07-31T07:05:34;5.82;;;2.20;;
45642;SDS011;31358;46.008;11.144;2023-07-31T07:08:00;5.63;;;2.70;;
45642;SDS011;31358;46.008;11.144;2023-07-31T07:10:26;7.22;;;2.60;;
45642;SDS011;31358;46.008;11.144;2023-07-31T07:12:52;4.63;;;2.50;;
45642;SDS011;31358;46.008;11.144;2023-07-31T07:15:18;4.60;;;2.40;;
45642;SDS011;31358;46.008;11.144;2023-07-31T07:17:43;6.45;;;2.65;;
45642;SDS011;31358;46.008;11.144;2023-07-31T07:20:09;5.05;;;2.75;;
45642;SDS011;31358;46.008;11.144;2023-07-31T07:22:35;5.40;;;2.45;;
45642;SDS011;31358;46.008;11.144;2023-07-31T07:25:01;4.60;;;2.10;;
45642;SDS011;31358;46.008;11.144;2023-07-31T07:27:27;7.88;;;2.67;;
45642;SDS011;31358;46.008;11.144;2023-07-31T07:29:53;6.70;;;2.72;;
45642;SDS011;31358;46.008;11.144;2023-07-31T07:32:19;8.57;;;2.67;;
45642;SDS011;31358;46.008;11.144;2023-07-31T07:34:47;6.78;;;2.55;;
45642;SDS011;31358;46.008;11.144;2023-07-31T07:37:13;11.40;;;3.03;;
45642;SDS011;31358;46.008;11.144;2023-07-31T07:39:39;7.90;;;2.60;;
45642;SDS011;31358;46.008;11.144;2023-07-31T07:42:06;5.82;;;2.40;;
45642;SDS011;31358;46.008;11.144;2023-07-31T07:44:31;3.72;;;2.58;;
45642;SDS011;31358;46.008;11.144;2023-07-31T07:46:57;12.65;;;2.80;;
45642;SDS011;31358;46.008;11.144;2023-07-31T07:49:23;4.03;;;2.40;;
45642;SDS011;31358;46.008;11.144;2023-07-31T07:51:49;5.38;;;2.55;;
45642;SDS011;31358;46.008;11.144;2023-07-31T07:54:15;4.03;;;2.40;;
45642;SDS011;31358;46.008;11.144;2023-07-31T07:56:42;6.38;;;3.00;;
45642;SDS011;31358;46.008;11.144;2023-07-31T07:59:08;5.43;;;3.03;;
45642;SDS011;31358;46.008;11.144;2023-07-31T08:01:33;5.10;;;3.20;;
45642;SDS011;31358;46.008;11.144;2023-07-31T08:03:59;5.55;;;2.47;;
45642;SDS011;31358;46.008;11.144;2023-07-31T08:06:25;4.68;;;2.78;;
45642;SDS011;31358;46.008;11.144;2023-07-31T08:08:50;5.40;;;2.20;;
45642;SDS011;31358;46.008;11.144;2023-07-31T08:11:16;7.40;;;2.88;;
45642;SDS011;31358;46.008;11.144;2023-07-31T08:13:42;6.65;;;2.55;;
45642;SDS011;31358;46.008;11.144;2023-07-31T08:16:07;5.28;;;2.15;;
45642;SDS011;31358;46.008;11.144;2023-07-31T08:18:33;6.30;;;2.15;;
45642;SDS011;31358;46.008;11.144;2023-07-31T08:20:59;4.53;;;2.28;;
45642;SDS011;31358;46.008;11.144;2023-07-31T08:23:29;7.85;;;2.55;;
45642;SDS011;31358;46.008;11.144;2023-07-31T08:25:55;3.90;;;2.40;;
45642;SDS011;31358;46.008;11.144;2023-07-31T08:28:21;5.15;;;2.50;;
45642;SDS011;31358;46.008;11.144;2023-07-31T08:30:46;7.97;;;2.80;;
45642;SDS011;31358;46.008;11.144;2023-07-31T08:33:12;6.72;;;2.47;;
45642;SDS011;31358;46.008;11.144;2023-07-31T08:35:38;4.47;;;2.40;;
45642;SDS011;31358;46.008;11.144;2023-07-31T08:38:03;6.55;;;2.20;;
45642;SDS011;31358;46.008;11.144;2023-07-31T08:40:29;4.07;;;2.17;;
45642;SDS011;31358;46.008;11.144;2023-07-31T08:42:55;5.35;;;2.08;;
45642;SDS011;31358;46.008;11.144;2023-07-31T08:45:27;3.92;;;2.33;;
45642;SDS011;31358;46.008;11.144;2023-07-31T08:47:53;5.40;;;1.95;;
45642;SDS011;31358;46.008;11.144;2023-07-31T08:50:21;8.50;;;2.17;;
45642;SDS011;31358;46.008;11.144;2023-07-31T08:52:48;6.18;;;2.05;;
45642;SDS011;31358;46.008;11.144;2023-07-31T08:55:15;7.63;;;2.13;;
45642;SDS011;31358;46.008;11.144;2023-07-31T08:57:41;4.68;;;1.92;;
45642;SDS011;31358;46.008;11.144;2023-07-31T09:00:08;4.22;;;2.38;;
45642;SDS011;31358;46.008;11.144;2023-07-31T09:02:37;4.53;;;2.70;;
45642;SDS011;31358;46.008;11.144;2023-07-31T09:05:10;4.53;;;2.25;;
45642;SDS011;31358;46.008;11.144;2023-07-31T09:07:37;6.70;;;2.47;;
45642;SDS011;31358;46.008;11.144;2023-07-31T09:10:03;5.75;;;3.10;;
45642;SDS011;31358;46.008;11.144;2023-07-31T09:12:30;5.88;;;2.00;;
45642;SDS011;31358;46.008;11.144;2023-07-31T09:14:59;3.95;;;2.10;;
45642;SDS011;31358;46.008;11.144;2023-07-31T09:17:29;4.63;;;2.25;;
45642;SDS011;31358;46.008;11.144;2023-07-31T09:20:15;5.55;;;2.25;;
45642;SDS011;31358;46.008;11.144;2023-07-31T09:22:42;5.43;;;2.03;;
45642;SDS011;31358;46.008;11.144;2023-07-31T09:25:15;3.45;;;2.00;;
45642;SDS011;31358;46.008;11.144;2023-07-31T09:27:47;4.05;;;2.30;;
45642;SDS011;31358;46.008;11.144;2023-07-31T09:30:23;5.28;;;2.22;;
45642;SDS011;31358;46.008;11.144;2023-07-31T09:32:50;3.47;;;1.88;;
45642;SDS011;31358;46.008;11.144;2023-07-31T09:35:28;4.15;;;2.28;;
45642;SDS011;31358;46.008;11.144;2023-07-31T09:38:19;4.43;;;2.35;;
45642;SDS011;31358;46.008;11.144;2023-07-31T09:40:45;3.72;;;2.10;;
45642;SDS011;31358;46.008;11.144;2023-07-31T09:43:18;3.88;;;2.05;;
45642;SDS011;31358;46.008;11.144;2023-07-31T09:45:45;5.10;;;2.13;;
45642;SDS011;31358;46.008;11.144;2023-07-31T09:48:12;4.80;;;2.85;;
45642;SDS011;31358;46.008;11.144;2023-07-31T09:50:41;10.88;;;2.90;;
45642;SDS011;31358;46.008;11.144;2023-07-31T09:53:08;5.60;;;2.30;;
45642;SDS011;31358;46.008;11.144;2023-07-31T09:55:35;11.85;;;2.63;;
45642;SDS011;31358;46.008;11.144;2023-07-31T09:58:05;5.03;;;2.30;;
45642;SDS011;31358;46.008;11.144;2023-07-31T10:00:33;4.68;;;2.83;;
45642;SDS011;31358;46.008;11.144;2023-07-31T10:02:59;5.30;;;2.17;;
45642;SDS011;31358;46.008;11.144;2023-07-31T10:06:09;5.68;;;2.70;;
45642;SDS011;31358;46.008;11.144;2023-07-31T10:08:16;8.80;;;2.25;;
45642;SDS011;31358;46.008;11.144;2023-07-31T10:10:45;4.60;;;2.05;;
45642;SDS011;31358;46.008;11.144;2023-07-31T10:13:12;5.03;;;2.35;;
45642;SDS011;31358;46.008;11.144;2023-07-31T10:15:39;5.15;;;2.17;;
45642;SDS011;31358;46.008;11.144;2023-07-31T10:18:06;6.07;;;2.67;;
45642;SDS011;31358;46.008;11.144;2023-07-31T10:20:33;6.15;;;2.38;;
45642;SDS011;31358;46.008;11.144;2023-07-31T10:22:59;4.40;;;2.22;;
45642;SDS011;31358;46.008;11.144;2023-07-31T10:25:26;3.67;;;1.98;;
45642;SDS011;31358;46.008;11.144;2023-07-31T10:27:52;5.32;;;2.40;;
45642;SDS011;31358;46.008;11.144;2023-07-31T10:30:20;5.85;;;2.60;;
45642;SDS011;31358;46.008;11.144;2023-07-31T10:32:54;6.20;;;2.75;;
45642;SDS011;31358;46.008;11.144;2023-07-31T10:35:21;4.60;;;2.33;;
45642;SDS011;31358;46.008;11.144;2023-07-31T10:37:47;5.38;;;2.38;;
45642;SDS011;31358;46.008;11.144;2023-07-31T10:40:32;3.67;;;2.15;;
45642;SDS011;31358;46.008;11.144;2023-07-31T10:45:24;4.57;;;2.47;;
45642;SDS011;31358;46.008;11.144;2023-07-31T10:47:59;4.03;;;2.28;;
45642;SDS011;31358;46.008;11.144;2023-07-31T10:50:26;6.13;;;2.13;;
45642;SDS011;31358;46.008;11.144;2023-07-31T10:52:53;7.55;;;2.70;;
45642;SDS011;31358;46.008;11.144;2023-07-31T10:58:08;6.50;;;2.78;;
45642;SDS011;31358;46.008;11.144;2023-07-31T11:00:42;5.03;;;2.72;;
45642;SDS011;31358;46.008;11.144;2023-07-31T11:03:10;5.43;;;2.60;;
45642;SDS011;31358;46.008;11.144;2023-07-31T11:05:48;7.15;;;2.80;;
45642;SDS011;31358;46.008;11.144;2023-07-31T11:08:19;5.40;;;2.83;;
45642;SDS011;31358;46.008;11.144;2023-07-31T11:11:10;4.80;;;2.75;;
45642;SDS011;31358;46.008;11.144;2023-07-31T11:16:05;5.18;;;2.80;;
45642;SDS011;31358;46.008;11.144;2023-07-31T11:18:30;4.53;;;2.47;;
45642;SDS011;31358;46.008;11.144;2023-07-31T11:20:56;5.85;;;2.50;;
45642;SDS011;31358;46.008;11.144;2023-07-31T11:23:22;5.53;;;2.55;;
45642;SDS011;31358;46.008;11.144;2023-07-31T11:25:48;3.92;;;2.38;;
45642;SDS011;31358;46.008;11.144;2023-07-31T11:28:16;5.60;;;2.15;;
45642;SDS011;31358;46.008;11.144;2023-07-31T11:30:43;5.40;;;2.83;;
45642;SDS011;31358;46.008;11.144;2023-07-31T11:33:12;5.18;;;2.55;;
45642;SDS011;31358;46.008;11.144;2023-07-31T11:35:45;5.60;;;2.55;;
45642;SDS011;31358;46.008;11.144;2023-07-31T11:38:22;4.68;;;2.38;;
45642;SDS011;31358;46.008;11.144;2023-07-31T11:40:53;5.55;;;2.30;;
45642;SDS011;31358;46.008;11.144;2023-07-31T11:43:24;4.10;;;2.30;;
45642;SDS011;31358;46.008;11.144;2023-07-31T11:45:51;8.82;;;3.38;;
45642;SDS011;31358;46.008;11.144;2023-07-31T11:48:23;4.50;;;2.58;;
45642;SDS011;31358;46.008;11.144;2023-07-31T11:50:52;3.95;;;2.10;;
45642;SDS011;31358;46.008;11.144;2023-07-31T11:53:33;4.60;;;2.22;;
45642;SDS011;31358;46.008;11.144;2023-07-31T11:56:08;5.20;;;2.30;;
45642;SDS011;31358;46.008;11.144;2023-07-31T11:58:37;5.65;;;2.40;;
45642;SDS011;31358;46.008;11.144;2023-07-31T12:01:03;3.85;;;2.33;;
45642;SDS011;31358;46.008;11.144;2023-07-31T12:03:30;4.93;;;2.88;;
45642;SDS011;31358;46.008;11.144;2023-07-31T12:05:57;4.22;;;1.92;;
45642;SDS011;31358;46.008;11.144;2023-07-31T12:08:24;7.60;;;2.38;;
45642;SDS011;31358;46.008;11.144;2023-07-31T12:10:51;4.40;;;2.30;;
45642;SDS011;31358;46.008;11.144;2023-07-31T12:13:21;3.60;;;2.35;;
45642;SDS011;31358;46.008;11.144;2023-07-31T12:15:48;3.83;;;2.30;;
45642;SDS011;31358;46.008;11.144;2023-07-31T12:18:19;3.80;;;2.42;;
45642;SDS011;31358;46.008;11.144;2023-07-31T12:20:47;3.80;;;1.98;;
45642;SDS011;31358;46.008;11.144;2023-07-31T12:23:21;4.55;;;2.80;;
45642;SDS011;31358;46.008;11.144;2023-07-31T12:26:04;3.92;;;2.30;;
45642;SDS011;31358;46.008;11.144;2023-07-31T12:28:36;4.28;;;2.40;;
45642;SDS011;31358;46.008;11.144;2023-07-31T12:31:05;5.38;;;1.98;;
45642;SDS011;31358;46.008;11.144;2023-07-31T12:33:33;4.80;;;1.90;;
45642;SDS011;31358;46.008;11.144;2023-07-31T12:36:01;5.32;;;2.53;;
45642;SDS011;31358;46.008;11.144;2023-07-31T12:38:29;5.68;;;2.67;;
45642;SDS011;31358;46.008;11.144;2023-07-31T12:40:55;5.95;;;2.75;;
45642;SDS011;31358;46.008;11.144;2023-07-31T12:43:21;4.18;;;2.30;;
45642;SDS011;31358;46.008;11.144;2023-07-31T12:45:46;5.40;;;2.60;;
45642;SDS011;31358;46.008;11.144;2023-07-31T12:48:12;5.05;;;2.40;;
45642;SDS011;31358;46.008;11.144;2023-07-31T12:50:38;4.97;;;2.95;;
45642;SDS011;31358;46.008;11.144;2023-07-31T12:53:04;6.05;;;3.20;;
45642;SDS011;31358;46.008;11.144;2023-07-31T12:55:31;5.13;;;3.25;;
45642;SDS011;31358;46.008;11.144;2023-07-31T12:58:01;4.65;;;2.70;;
45642;SDS011;31358;46.008;11.144;2023-07-31T13:00:27;5.47;;;3.00;;
45642;SDS011;31358;46.008;11.144;2023-07-31T13:02:53;5.55;;;2.85;;
45642;SDS011;31358;46.008;11.144;2023-07-31T13:05:19;4.07;;;2.70;;
45642;SDS011;31358;46.008;11.144;2023-07-31T13:07:46;4.22;;;2.92;;
45642;SDS011;31358;46.008;11.144;2023-07-31T13:10:12;3.70;;;2.60;;
45642;SDS011;31358;46.008;11.144;2023-07-31T13:12:38;4.32;;;2.30;;
45642;SDS011;31358;46.008;11.144;2023-07-31T13:15:04;4.07;;;2.60;;
45642;SDS011;31358;46.008;11.144;2023-07-31T13:17:31;5.88;;;2.35;;
45642;SDS011;31358;46.008;11.144;2023-07-31T13:19:57;5.32;;;2.67;;
45642;SDS011;31358;46.008;11.144;2023-07-31T13:22:22;6.70;;;2.70;;
45642;SDS011;31358;46.008;11.144;2023-07-31T13:24:48;5.13;;;2.72;;
45642;SDS011;31358;46.008;11.144;2023-07-31T13:27:14;4.60;;;2.88;;
45642;SDS011;31358;46.008;11.144;2023-07-31T13:29:43;3.65;;;1.90;;
45642;SDS011;31358;46.008;11.144;2023-07-31T13:32:09;3.60;;;2.10;;
45642;SDS011;31358;46.008;11.144;2023-07-31T13:34:35;3.38;;;1.92;;
45642;SDS011;31358;46.008;11.144;2023-07-31T13:37:01;6.57;;;2.40;;
45642;SDS011;31358;46.008;11.144;2023-07-31T13:39:27;4.95;;;2.17;;
45642;SDS011;31358;46.008;11.144;2023-07-31T13:41:52;7.38;;;2.00;;
45642;SDS011;31358;46.008;11.144;2023-07-31T13:44:18;4.15;;;1.98;;
45642;SDS011;31358;46.008;11.144;2023-07-31T13:46:44;3.65;;;1.80;;
45642;SDS011;31358;46.008;11.144;2023-07-31T13:49:09;4.30;;;2.22;;
45642;SDS011;31358;46.008;11.144;2023-07-31T13:51:35;3.35;;;1.90;;
45642;SDS011;31358;46.008;11.144;2023-07-31T13:54:02;4.03;;;2.00;;
45642;SDS011;31358;46.008;11.144;2023-07-31T13:56:28;6.40;;;2.00;;
45642;SDS011;31358;46.008;11.144;2023-07-31T13:58:54;3.28;;;1.90;;
45642;SDS011;31358;46.008;11.144;2023-07-31T14:01:20;3.90;;;2.20;;
45642;SDS011;31358;46.008;11.144;2023-07-31T14:03:46;4.95;;;2.10;;
45642;SDS011;31358;46.008;11.144;2023-07-31T14:06:11;3.70;;;2.03;;
45642;SDS011;31358;46.008;11.144;2023-07-31T14:08:37;3.63;;;2.28;;
45642;SDS011;31358;46.008;11.144;2023-07-31T14:11:03;3.42;;;1.90;;
45642;SDS011;31358;46.008;11.144;2023-07-31T14:13:28;4.07;;;1.98;;
45642;SDS011;31358;46.008;11.144;2023-07-31T14:15:54;3.63;;;2.20;;
45642;SDS011;31358;46.008;11.144;2023-07-31T14:18:20;4.00;;;1.98;;
45642;SDS011;31358;46.008;11.144;2023-07-31T14:20:46;3.65;;;1.80;;
45642;SDS011;31358;46.008;11.144;2023-07-31T14:23:11;3.90;;;1.83;;
45642;SDS011;31358;46.008;11.144;2023-07-31T14:25:37;3.55;;;2.03;;
45642;SDS011;31358;46.008;11.144;2023-07-31T14:28:03;3.17;;;1.98;;
45642;SDS011;31358;46.008;11.144;2023-07-31T14:30:29;3.30;;;1.90;;
45642;SDS011;31358;46.008;11.144;2023-07-31T14:32:55;4.05;;;1.88;;
45642;SDS011;31358;46.008;11.144;2023-07-31T14:35:21;3.97;;;2.30;;
45642;SDS011;31358;46.008;11.144;2023-07-31T14:37:47;4.00;;;2.03;;
45642;SDS011;31358;46.008;11.144;2023-07-31T14:40:13;3.10;;;1.80;;
45642;SDS011;31358;46.008;11.144;2023-07-31T14:42:41;3.60;;;2.08;;
45642;SDS011;31358;46.008;11.144;2023-07-31T14:45:07;3.60;;;2.20;;